Time;durP1;ratioP1;P1;durP2;ratioP2;P2;SDS_P1;SDS_P2;PMS_P1;PMS_P2;Temp;Humidity;BMP_temperature;BMP_pressure;BME280_temperature;BME280_humidity;BME280_pressure;Samples;Min_cycle;Max_cycle;Signal;HPM_P1;HPM_P2
2021/03/20 00:00:45;;;;;;;;;;;;;;;6.34;100.00;100780.78;5059482;28;20398;-91
2021/03/20 00:03:12;;;;;;;;;;;;;;;6.30;100.00;100791.00;5076123;28;19924;-91
2021/03/20 00:05:39;;;;;;;;;;;;;;;6.32;100.00;100799.75;5076261;28;19931;-91
2021/03/20 00:08:07;;;;;;;;;;;;;;;6.39;100.00;100805.53;5076262;28;19924;-91
2021/03/20 00:10:33;;;;;;;;;;;;;;;6.53;100.00;100805.91;5059274;28;19924;-91
2021/03/20 00:13:00;;;;;;;;;;;;;;;6.48;100.00;100814.50;5092811;28;20065;-90
2021/03/20 00:15:27;;;;;;;;;;;;;;;6.45;100.00;100815.22;5075736;28;19927;-91
2021/03/20 00:17:54;;;;;;;;;;;;;;;6.35;100.00;100816.53;5092998;28;19924;-91
2021/03/20 00:20:23;;;;;;;;;;;;;;;6.28;100.00;100815.50;5059156;28;19928;-91
2021/03/20 00:22:49;;;;;;;;;;;;;;;6.30;100.00;100824.31;5059353;28;19932;-91
2021/03/20 00:25:16;;;;;;;;;;;;;;;6.23;100.00;100826.84;5042776;28;19924;-91
2021/03/20 00:27:43;;;;;;;;;;;;;;;6.26;100.00;100835.31;5079579;28;19924;-91
2021/03/20 00:30:11;;;;;;;;;;;;;;;6.33;100.00;100834.72;5079600;28;19925;-91
2021/03/20 00:32:38;;;;;;;;;;;;;;;6.46;100.00;100839.03;5079377;28;20035;-91
2021/03/20 00:35:06;;;;;;;;;;;;;;;6.47;100.00;100840.66;5046143;28;19924;-92
2021/03/20 00:37:32;;;;;;;;;;;;;;;6.33;100.00;100835.50;5062522;28;19924;-90
2021/03/20 00:39:59;;;;;;;;;;;;;;;6.47;100.00;100843.41;5079181;28;19969;-91
2021/03/20 00:42:26;;;;;;;;;;;;;;;6.50;100.00;100834.38;5046238;28;19994;-91
2021/03/20 00:44:52;;;;;;;;;;;;;;;6.52;100.00;100835.66;5062625;28;19931;-91
2021/03/20 00:47:19;;;;;;;;;;;;;;;6.58;100.00;100825.09;5062691;28;19924;-91
2021/03/20 00:49:46;;;;;;;;;;;;;;;6.58;100.00;100830.66;5113155;28;19931;-91
2021/03/20 00:52:12;;;;;;;;;;;;;;;6.53;100.00;100833.69;5079292;28;19924;-91
2021/03/20 00:54:39;;;;;;;;;;;;;;;6.49;100.00;100839.16;5062243;28;19924;-92
2021/03/20 00:57:06;;;;;;;;;;;;;;;6.54;100.00;100829.75;5062560;28;19931;-91
2021/03/20 00:59:33;;;;;;;;;;;;;;;6.55;100.00;100836.91;5079326;28;19932;-92
2021/03/20 01:02:00;;;;;;;;;;;;;;;6.62;100.00;100839.91;5078932;28;19924;-91
2021/03/20 01:04:26;;;;;;;;;;;;;;;6.43;100.00;100840.56;5062457;28;19959;-91
2021/03/20 01:06:53;;;;;;;;;;;;;;;6.39;100.00;100838.84;5079005;28;20011;-91
2021/03/20 01:09:23;;;;;;;;;;;;;;;6.44;100.00;100844.13;5078806;28;19924;-91
2021/03/20 01:11:50;;;;;;;;;;;;;;;6.49;100.00;100849.44;5078830;28;19924;-92
2021/03/20 01:14:17;;;;;;;;;;;;;;;6.53;100.00;100850.34;5078802;28;20289;-91
2021/03/20 01:16:43;;;;;;;;;;;;;;;6.52;100.00;100851.50;5078999;28;19924;-91
2021/03/20 01:19:10;;;;;;;;;;;;;;;6.63;100.00;100858.19;5061878;28;19973;-91
2021/03/20 01:21:37;;;;;;;;;;;;;;;6.66;100.00;100858.28;5095576;28;19928;-91
2021/03/20 01:24:04;;;;;;;;;;;;;;;6.69;100.00;100862.31;5062199;28;20014;-91
2021/03/20 01:26:30;;;;;;;;;;;;;;;6.63;100.00;100849.84;5095482;28;19928;-92
2021/03/20 01:28:57;;;;;;;;;;;;;;;6.73;100.00;100854.88;5095206;28;19924;-91
2021/03/20 01:31:24;;;;;;;;;;;;;;;6.67;100.00;100850.75;5061666;28;19930;-92
2021/03/20 01:33:50;;;;;;;;;;;;;;;6.75;100.00;100853.38;5078322;28;19924;-91
2021/03/20 01:36:17;;;;;;;;;;;;;;;6.74;100.00;100842.63;5078196;28;20365;-92
2021/03/20 01:38:44;;;;;;;;;;;;;;;6.76;100.00;100829.16;5078376;28;19932;-91
2021/03/20 01:41:15;;;;;;;;;;;;;;;6.80;100.00;100832.88;5062182;28;19931;-91
2021/03/20 01:43:43;;;;;;;;;;;;;;;6.77;100.00;100828.03;5078410;28;19924;-92
2021/03/20 01:46:25;;;;;;;;;;;;;;;6.63;100.00;100820.09;5045084;28;19924;-91
2021/03/20 01:48:51;;;;;;;;;;;;;;;6.53;100.00;100820.59;5061717;28;20298;-91
2021/03/20 01:51:18;;;;;;;;;;;;;;;6.61;100.00;100818.84;5061742;28;19924;-91
2021/03/20 01:53:49;;;;;;;;;;;;;;;6.51;100.00;100808.25;5061548;28;19973;-92
2021/03/20 01:56:21;;;;;;;;;;;;;;;6.52;100.00;100804.28;5061513;28;19924;-92
2021/03/20 01:58:49;;;;;;;;;;;;;;;6.64;100.00;100815.34;5078039;28;19924;-91
2021/03/20 02:01:27;;;;;;;;;;;;;;;6.52;100.00;100810.66;5078300;28;19951;-92
2021/03/20 02:03:55;;;;;;;;;;;;;;;6.59;100.00;100812.81;5078230;28;19924;-91
2021/03/20 02:06:22;;;;;;;;;;;;;;;6.54;100.00;100813.09;5061189;28;20499;-92
2021/03/20 02:08:50;;;;;;;;;;;;;;;6.51;100.00;100808.25;5077503;28;20298;-91
2021/03/20 02:11:27;;;;;;;;;;;;;;;6.41;100.00;100803.19;5077776;28;20425;-91
2021/03/20 02:14:12;;;;;;;;;;;;;;;6.34;100.00;100803.00;5094719;28;19924;-90
2021/03/20 02:17:15;;;;;;;;;;;;;;;6.28;100.00;100798.84;5080479;28;19962;-91
2021/03/20 02:19:45;;;;;;;;;;;;;;;6.32;100.00;100805.31;5057177;28;19929;-85
2021/03/20 02:22:18;;;;;;;;;;;;;;;6.28;100.00;100804.41;5093963;28;19935;-89
2021/03/20 02:25:08;;;;;;;;;;;;;;;6.34;100.00;100803.00;5111164;28;19948;-91
2021/03/20 02:28:02;;;;;;;;;;;;;;;6.49;100.00;100816.13;5062389;28;19947;-92
2021/03/20 02:30:28;;;;;;;;;;;;;;;6.46;100.00;100809.31;5076098;28;19970;-91
2021/03/20 02:33:07;;;;;;;;;;;;;;;6.42;100.00;100810.38;5094002;28;20405;-91
2021/03/20 02:35:43;;;;;;;;;;;;;;;6.39;100.00;100811.09;5076529;28;20339;-91
2021/03/20 02:38:45;;;;;;;;;;;;;;;6.40;100.00;100804.34;5060135;28;19924;-91
2021/03/20 02:41:15;;;;;;;;;;;;;;;6.44;100.00;100813.59;5007251;28;19925;-91
2021/03/20 02:43:42;;;;;;;;;;;;;;;6.47;100.00;100796.22;5024523;28;19928;-92
2021/03/20 02:46:20;;;;;;;;;;;;;;;6.56;100.00;100792.13;5005602;28;20303;-91
2021/03/20 02:48:57;;;;;;;;;;;;;;;6.58;100.00;100791.75;5005111;28;19924;-92
2021/03/20 02:51:23;;;;;;;;;;;;;;;6.45;100.00;100779.13;5039628;28;20427;-91
2021/03/20 02:53:53;;;;;;;;;;;;;;;6.41;100.00;100779.00;5039217;28;19924;-90
2021/03/20 02:56:24;;;;;;;;;;;;;;;6.26;100.00;100779.78;5035472;28;20292;-90
2021/03/20 02:58:57;;;;;;;;;;;;;;;6.20;100.00;100769.28;5070773;28;19931;-91
2021/03/20 03:01:25;;;;;;;;;;;;;;;6.11;100.00;100768.63;5055505;28;19925;-91
2021/03/20 03:03:52;;;;;;;;;;;;;;;6.14;100.00;100765.13;5055301;28;20403;-91
2021/03/20 03:06:29;;;;;;;;;;;;;;;5.98;100.00;100762.31;5049104;28;20322;-91
2021/03/20 03:09:00;;;;;;;;;;;;;;;5.83;100.00;100751.94;5022104;28;19924;-91
2021/03/20 03:11:39;;;;;;;;;;;;;;;5.97;100.00;100759.91;5016969;28;20380;-92
2021/03/20 03:14:15;;;;;;;;;;;;;;;5.89;100.00;100777.50;5038024;28;19978;-91
2021/03/20 03:16:47;;;;;;;;;;;;;;;5.84;100.00;100783.28;5093017;28;19931;-90
2021/03/20 03:19:17;;;;;;;;;;;;;;;5.87;100.00;100782.56;5072658;28;19924;-90
2021/03/20 03:21:46;;;;;;;;;;;;;;;5.88;100.00;100778.66;5072914;28;19929;-91
2021/03/20 03:24:16;;;;;;;;;;;;;;;5.89;100.00;100771.94;5075797;28;21413;-90
2021/03/20 03:26:47;;;;;;;;;;;;;;;5.88;100.00;100767.56;5076147;28;19928;-90
2021/03/20 03:29:15;;;;;;;;;;;;;;;5.92;100.00;100772.06;5092784;28;20085;-90
2021/03/20 03:31:48;;;;;;;;;;;;;;;6.00;100.00;100776.63;5092940;28;19924;-90
2021/03/20 03:34:18;;;;;;;;;;;;;;;6.17;100.00;100781.09;5059498;28;20359;-92
2021/03/20 03:37:11;;;;;;;;;;;;;;;6.17;100.00;100767.19;5072453;28;19926;-91
2021/03/20 03:39:43;;;;;;;;;;;;;;;6.20;100.00;100772.88;5090704;28;20461;-91
2021/03/20 03:42:11;;;;;;;;;;;;;;;6.22;100.00;100766.97;5072515;28;20401;-91
2021/03/20 03:44:37;;;;;;;;;;;;;;;6.28;100.00;100765.53;5075387;28;20666;-92
2021/03/20 03:47:05;;;;;;;;;;;;;;;6.28;100.00;100760.00;5076345;28;19925;-92
2021/03/20 03:49:32;;;;;;;;;;;;;;;6.24;100.00;100759.88;5072809;28;19929;-91
2021/03/20 03:51:59;;;;;;;;;;;;;;;6.16;100.00;100757.28;5058745;28;20446;-92
2021/03/20 03:54:25;;;;;;;;;;;;;;;6.08;100.00;100758.22;5075960;28;19924;-92
2021/03/20 03:57:10;;;;;;;;;;;;;;;6.10;100.00;100753.13;5072485;28;19982;-91
2021/03/20 03:59:49;;;;;;;;;;;;;;;6.14;100.00;100754.84;5072852;28;20011;-91
2021/03/20 04:02:21;;;;;;;;;;;;;;;6.10;100.00;100747.59;5096788;28;19924;-92
2021/03/20 04:05:09;;;;;;;;;;;;;;;6.20;100.00;100758.16;5076376;28;20042;-90
2021/03/20 04:07:51;;;;;;;;;;;;;;;6.23;100.00;100751.91;5062981;28;19978;-91
2021/03/20 04:10:35;;;;;;;;;;;;;;;6.23;100.00;100746.34;5079816;28;19931;-91
2021/03/20 04:13:22;;;;;;;;;;;;;;;6.25;100.00;100750.41;5113478;28;20050;-92
2021/03/20 04:16:00;;;;;;;;;;;;;;;6.36;100.00;100750.69;5059060;28;20355;-92
2021/03/20 04:18:35;;;;;;;;;;;;;;;6.31;100.00;100740.66;5075153;28;19924;-92
2021/03/20 04:21:13;;;;;;;;;;;;;;;6.35;100.00;100743.50;5076340;28;19970;-92
2021/03/20 04:23:45;;;;;;;;;;;;;;;6.09;100.00;100734.88;5077214;28;20013;-91
2021/03/20 04:26:21;;;;;;;;;;;;;;;6.02;100.00;100734.66;5075960;28;19975;-91
2021/03/20 04:28:55;;;;;;;;;;;;;;;6.19;100.00;100756.56;5108426;28;20268;-91
2021/03/20 04:31:44;;;;;;;;;;;;;;;6.28;100.00;100748.88;5096298;28;19928;-91
2021/03/20 04:34:16;;;;;;;;;;;;;;;6.41;100.00;100753.19;5062683;28;19959;-91
2021/03/20 04:36:51;;;;;;;;;;;;;;;6.40;100.00;100762.72;5095676;28;19924;-91
2021/03/20 04:39:20;;;;;;;;;;;;;;;6.43;100.00;100764.78;5095978;28;19924;-92
2021/03/20 04:41:51;;;;;;;;;;;;;;;6.57;100.00;100756.84;5097095;28;19924;-91
2021/03/20 04:44:19;;;;;;;;;;;;;;;6.59;100.00;100754.47;5096123;28;19925;-91
2021/03/20 04:46:52;;;;;;;;;;;;;;;6.61;100.00;100752.16;5079188;28;19928;-91
2021/03/20 04:49:34;;;;;;;;;;;;;;;6.57;100.00;100742.94;5079025;28;20299;-91
2021/03/20 04:52:03;;;;;;;;;;;;;;;6.60;100.00;100743.03;5092289;28;19924;-92
2021/03/20 04:54:30;;;;;;;;;;;;;;;6.59;100.00;100743.38;5059146;28;19924;-91
2021/03/20 04:57:17;;;;;;;;;;;;;;;6.61;100.00;100735.50;5106767;28;20063;-92
2021/03/20 04:59:44;;;;;;;;;;;;;;;6.63;100.00;100735.97;5072912;28;19970;-91
2021/03/20 05:02:16;;;;;;;;;;;;;;;6.63;100.00;100733.19;5095621;28;19924;-90
2021/03/20 05:04:46;;;;;;;;;;;;;;;6.62;100.00;100732.38;5075158;28;19960;-90
2021/03/20 05:07:14;;;;;;;;;;;;;;;6.62;100.00;100737.13;5078790;28;19925;-91
2021/03/20 05:09:40;;;;;;;;;;;;;;;6.66;100.00;100732.47;5078307;28;19928;-92
2021/03/20 05:12:18;;;;;;;;;;;;;;;6.64;100.00;100735.59;5077650;28;19931;-90
2021/03/20 05:14:46;;;;;;;;;;;;;;;6.65;100.00;100730.88;5095262;28;19931;-90
2021/03/20 05:17:17;;;;;;;;;;;;;;;6.61;100.00;100722.44;5095114;28;19924;-91
2021/03/20 05:19:44;;;;;;;;;;;;;;;6.63;100.00;100719.28;5078220;28;19924;-90
2021/03/20 05:22:16;;;;;;;;;;;;;;;6.63;100.00;100720.09;5094970;28;20050;-91
2021/03/20 05:24:43;;;;;;;;;;;;;;;6.68;100.00;100716.25;5078720;28;19924;-91
2021/03/20 05:27:11;;;;;;;;;;;;;;;6.71;100.00;100712.75;5095174;28;19931;-90
2021/03/20 05:29:37;;;;;;;;;;;;;;;6.70;100.00;100706.38;5095072;28;19931;-91
2021/03/20 05:32:05;;;;;;;;;;;;;;;6.67;100.00;100709.88;5111828;28;20400;-91
2021/03/20 05:34:31;;;;;;;;;;;;;;;6.69;100.00;100706.75;5077765;28;19924;-91
2021/03/20 05:36:58;;;;;;;;;;;;;;;6.72;100.00;100706.03;5041370;28;19924;-91
2021/03/20 05:39:25;;;;;;;;;;;;;;;6.71;100.00;100707.22;5078128;28;19931;-92
2021/03/20 05:41:58;;;;;;;;;;;;;;;6.72;100.00;100703.25;5074646;28;19935;-91
2021/03/20 05:44:38;;;;;;;;;;;;;;;6.83;100.00;100696.00;5076291;28;19932;-91
2021/03/20 05:47:06;;;;;;;;;;;;;;;6.79;100.00;100686.75;5078022;28;20375;-92
2021/03/20 05:49:59;;;;;;;;;;;;;;;6.83;100.00;100693.22;5094245;28;19928;-91
2021/03/20 05:52:41;;;;;;;;;;;;;;;6.80;100.00;100696.72;5092903;28;19924;-91
2021/03/20 05:55:19;;;;;;;;;;;;;;;6.79;100.00;100687.56;5094551;28;19924;-91
2021/03/20 05:57:49;;;;;;;;;;;;;;;6.80;100.00;100685.59;5077842;28;19924;-91
2021/03/20 06:00:22;;;;;;;;;;;;;;;6.82;100.00;100683.25;5074606;28;19932;-90
2021/03/20 06:03:13;;;;;;;;;;;;;;;6.79;100.00;100675.63;5065515;28;19925;-91
2021/03/20 06:05:52;;;;;;;;;;;;;;;6.80;100.00;100674.50;5077797;28;19974;-91
2021/03/20 06:08:37;;;;;;;;;;;;;;;6.80;100.00;100677.28;5057177;28;19925;-91
2021/03/20 06:11:03;;;;;;;;;;;;;;;6.82;100.00;100667.41;5083917;28;19986;-91
2021/03/20 06:13:30;;;;;;;;;;;;;;;6.80;100.00;100677.28;5077433;28;19923;-90
2021/03/20 06:16:03;;;;;;;;;;;;;;;6.81;100.00;100673.31;5095244;28;19924;-90
2021/03/20 06:18:53;;;;;;;;;;;;;;;6.83;100.00;100671.00;5060355;28;19924;-91
2021/03/20 06:21:20;;;;;;;;;;;;;;;6.81;100.00;100664.97;5100964;28;19924;-90
2021/03/20 06:23:47;;;;;;;;;;;;;;;6.80;100.00;100671.72;5076381;28;19931;-90
2021/03/20 06:26:18;;;;;;;;;;;;;;;6.77;100.00;100675.22;5076992;28;20440;-91
2021/03/20 06:29:17;;;;;;;;;;;;;;;6.78;100.00;100669.28;5077013;28;19924;-91
2021/03/20 06:31:48;;;;;;;;;;;;;;;6.89;100.00;100659.22;5019410;28;19932;-86
2021/03/20 06:34:25;;;;;;;;;;;;;;;6.93;100.00;100665.69;5035703;28;19968;-87
2021/03/20 06:36:56;;;;;;;;;;;;;;;7.01;100.00;100666.66;5024701;28;20387;-90
2021/03/20 06:39:40;;;;;;;;;;;;;;;7.03;100.00;100644.84;5054372;28;19928;-89
2021/03/20 06:42:10;;;;;;;;;;;;;;;7.04;100.00;100650.03;5054671;28;19925;-87
2021/03/20 06:44:38;;;;;;;;;;;;;;;7.13;100.00;100647.09;5025103;28;19978;-88
2021/03/20 06:47:14;;;;;;;;;;;;;;;7.16;100.00;100632.47;5038689;28;19951;-89
2021/03/20 06:49:44;;;;;;;;;;;;;;;7.20;100.00;100630.56;5038817;28;19925;-88
2021/03/20 06:52:15;;;;;;;;;;;;;;;7.28;100.00;100635.13;5033477;28;20458;-88
2021/03/20 06:54:42;;;;;;;;;;;;;;;7.26;100.00;100624.34;5071729;28;19940;-88
2021/03/20 06:57:10;;;;;;;;;;;;;;;7.30;100.00;100632.75;5055197;28;20015;-89
2021/03/20 06:59:37;;;;;;;;;;;;;;;7.33;100.00;100629.25;5055142;28;19924;-88
2021/03/20 07:02:14;;;;;;;;;;;;;;;7.34;100.00;100625.31;5021487;28;19963;-89
2021/03/20 07:04:40;;;;;;;;;;;;;;;7.39;100.00;100625.03;5051992;28;19944;-89
2021/03/20 07:07:23;;;;;;;;;;;;;;;7.43;100.00;100611.19;5027883;28;19924;-89
2021/03/20 07:09:51;;;;;;;;;;;;;;;7.47;100.00;100609.31;5068667;28;19925;-88
2021/03/20 07:12:19;;;;;;;;;;;;;;;7.54;100.00;100612.22;5080629;28;19924;-89
2021/03/20 07:14:54;;;;;;;;;;;;;;;7.53;100.00;100611.41;5080787;28;20295;-89
2021/03/20 07:17:21;;;;;;;;;;;;;;;7.58;100.00;100624.22;5100212;28;19946;-89
2021/03/20 07:19:51;;;;;;;;;;;;;;;7.61;100.00;100613.16;5083010;28;19925;-89
2021/03/20 07:22:29;;;;;;;;;;;;;;;7.59;100.00;100609.94;5084881;28;20076;-89
2021/03/20 07:24:56;;;;;;;;;;;;;;;7.64;100.00;100606.88;5097481;28;19932;-89
2021/03/20 07:27:34;;;;;;;;;;;;;;;7.66;100.00;100607.31;5064737;28;20340;-89
2021/03/20 07:30:05;;;;;;;;;;;;;;;7.62;100.00;100608.41;5071736;28;19925;-89
2021/03/20 07:32:37;;;;;;;;;;;;;;;7.59;100.00;100611.94;5057706;28;19930;-90
2021/03/20 07:35:19;;;;;;;;;;;;;;;7.64;100.00;100606.06;5061127;28;19925;-89
2021/03/20 07:37:47;;;;;;;;;;;;;;;7.62;100.00;100611.19;5092046;28;20009;-89
2021/03/20 07:40:30;;;;;;;;;;;;;;;7.64;100.00;100604.09;5092698;28;19930;-89
2021/03/20 07:43:29;;;;;;;;;;;;;;;7.64;100.00;100612.44;5059617;28;19924;-89
2021/03/20 07:46:06;;;;;;;;;;;;;;;7.67;100.00;100617.25;5054744;28;19973;-89
2021/03/20 07:48:32;;;;;;;;;;;;;;;7.75;100.00;100619.03;5072205;28;19936;-89
2021/03/20 07:51:02;;;;;;;;;;;;;;;7.77;100.00;100622.22;5101860;28;19981;-89
2021/03/20 07:53:29;;;;;;;;;;;;;;;7.81;100.00;100619.53;5092868;28;19974;-89
2021/03/20 07:56:01;;;;;;;;;;;;;;;7.91;100.00;100618.91;5092492;28;19931;-87
2021/03/20 07:58:27;;;;;;;;;;;;;;;7.90;100.00;100620.91;5091189;28;20428;-87
2021/03/20 08:00:56;;;;;;;;;;;;;;;7.93;100.00;100625.75;5075845;28;19995;-91
2021/03/20 08:03:27;;;;;;;;;;;;;;;8.00;100.00;100623.06;5063968;28;19966;-87
2021/03/20 08:06:08;;;;;;;;;;;;;;;8.02;100.00;100631.88;5078289;28;20387;-80
2021/03/20 08:08:35;;;;;;;;;;;;;;;8.07;100.00;100626.00;5058524;28;19928;-77
2021/03/20 08:11:01;;;;;;;;;;;;;;;8.12;100.00;100628.47;5088255;28;20060;-77
2021/03/20 08:13:39;;;;;;;;;;;;;;;8.08;100.00;100637.94;5092858;28;19931;-77
2021/03/20 08:16:06;;;;;;;;;;;;;;;8.06;100.00;100638.31;5091320;28;19931;-77
2021/03/20 08:18:35;;;;;;;;;;;;;;;7.96;100.00;100647.28;5091434;28;19928;-77
2021/03/20 08:21:06;;;;;;;;;;;;;;;7.91;100.00;100655.91;5092964;28;19924;-79
2021/03/20 08:23:33;;;;;;;;;;;;;;;7.87;100.00;100643.91;5091998;28;20041;-77
2021/03/20 08:26:18;;;;;;;;;;;;;;;7.86;100.00;100653.41;5086654;28;19967;-77
2021/03/20 08:28:45;;;;;;;;;;;;;;;7.80;100.00;100643.75;5090478;28;20019;-77
2021/03/20 08:31:30;;;;;;;;;;;;;;;7.72;100.00;100642.00;5092302;28;19924;-77
2021/03/20 08:34:03;;;;;;;;;;;;;;;7.67;100.00;100647.88;5091201;28;20407;-77
2021/03/20 08:36:38;;;;;;;;;;;;;;;7.70;100.00;100649.91;5090519;28;20006;-77
2021/03/20 08:39:10;;;;;;;;;;;;;;;7.72;100.00;100655.94;5077005;28;19924;-80
2021/03/20 08:41:43;;;;;;;;;;;;;;;7.68;100.00;100660.59;5082495;28;20022;-81
2021/03/20 08:44:10;;;;;;;;;;;;;;;7.73;100.00;100660.31;5087513;28;19924;-83
2021/03/20 08:46:55;;;;;;;;;;;;;;;7.75;100.00;100669.13;5089211;28;19928;-82
2021/03/20 08:49:26;;;;;;;;;;;;;;;7.80;100.00;100660.44;5067802;28;19924;-82
2021/03/20 08:52:01;;;;;;;;;;;;;;;7.88;100.00;100666.97;5092062;28;19951;-82
2021/03/20 08:54:27;;;;;;;;;;;;;;;7.94;100.00;100660.75;5090867;28;19969;-82
2021/03/20 08:57:08;;;;;;;;;;;;;;;8.01;100.00;100662.88;5092398;28;20298;-80
2021/03/20 08:59:39;;;;;;;;;;;;;;;8.00;100.00;100658.44;5090723;28;19924;-82
2021/03/20 09:02:24;;;;;;;;;;;;;;;8.01;100.00;100655.28;5084704;28;19924;-83
2021/03/20 09:04:51;;;;;;;;;;;;;;;8.18;100.00;100643.69;5090494;28;19924;-84
2021/03/20 09:07:22;;;;;;;;;;;;;;;8.32;100.00;100648.75;5074202;28;19947;-83
2021/03/20 09:09:58;;;;;;;;;;;;;;;8.43;100.00;100641.41;5091970;28;19931;-84
2021/03/20 09:12:29;;;;;;;;;;;;;;;8.58;100.00;100638.50;5105196;28;19955;-84
2021/03/20 09:14:56;;;;;;;;;;;;;;;8.70;100.00;100638.28;5090842;28;20061;-83
2021/03/20 09:17:25;;;;;;;;;;;;;;;8.79;100.00;100629.66;5094346;28;19931;-83
2021/03/20 09:19:53;;;;;;;;;;;;;;;8.86;100.00;100638.94;5083969;28;19946;-84
2021/03/20 09:22:23;;;;;;;;;;;;;;;9.12;100.00;100629.75;5103417;28;19924;-83
2021/03/20 09:25:03;;;;;;;;;;;;;;;9.10;100.00;100630.16;5088307;28;19969;-83
2021/03/20 09:27:49;;;;;;;;;;;;;;;9.15;100.00;100620.66;5090610;28;19924;-83
2021/03/20 09:30:18;;;;;;;;;;;;;;;9.22;100.00;100619.94;5092617;28;20409;-83
2021/03/20 09:32:47;;;;;;;;;;;;;;;9.30;100.00;100627.25;5096167;28;19931;-88
2021/03/20 09:35:18;;;;;;;;;;;;;;;9.44;100.00;100616.25;5094746;28;20331;-87
2021/03/20 09:37:47;;;;;;;;;;;;;;;9.71;100.00;100612.25;5094718;28;19924;-86
2021/03/20 09:40:16;;;;;;;;;;;;;;;9.88;100.00;100603.25;5077677;28;20336;-86
2021/03/20 09:42:43;;;;;;;;;;;;;;;9.90;100.00;100612.88;5111332;28;19928;-89
2021/03/20 09:45:13;;;;;;;;;;;;;;;9.88;100.00;100601.25;5094735;28;19969;-88
2021/03/20 09:47:46;;;;;;;;;;;;;;;9.85;100.00;100599.22;5096074;28;21742;-87
2021/03/20 09:50:19;;;;;;;;;;;;;;;9.84;100.00;100596.81;5060840;28;19928;-88
2021/03/20 09:52:57;;;;;;;;;;;;;;;9.85;100.00;100598.41;5094316;28;20001;-88
2021/03/20 09:55:30;;;;;;;;;;;;;;;9.77;100.00;100605.13;5060759;28;19924;-89
2021/03/20 09:58:01;;;;;;;;;;;;;;;9.63;100.00;100596.59;5077925;28;20278;-88
2021/03/20 10:00:46;;;;;;;;;;;;;;;9.68;100.00;100599.03;5091186;28;19941;-84
2021/03/20 10:03:39;;;;;;;;;;;;;;;9.64;100.00;100592.59;5093893;28;20359;-80
2021/03/20 10:06:12;;;;;;;;;;;;;;;9.67;100.00;100600.22;5093511;28;19946;-80
2021/03/20 10:08:45;;;;;;;;;;;;;;;9.61;100.00;100604.53;5094456;28;19950;-85
2021/03/20 10:11:30;;;;;;;;;;;;;;;9.67;100.00;100597.41;5093811;28;20371;-85
2021/03/20 10:13:57;;;;;;;;;;;;;;;9.91;100.00;100599.69;5073689;28;19931;-86
2021/03/20 10:16:27;;;;;;;;;;;;;;;9.90;100.00;100600.88;5100368;28;19928;-85
2021/03/20 10:18:56;;;;;;;;;;;;;;;10.10;100.00;100591.16;5092529;28;20299;-85
2021/03/20 10:21:28;;;;;;;;;;;;;;;10.29;100.00;100590.94;5087795;28;19928;-85
2021/03/20 10:24:04;;;;;;;;;;;;;;;10.43;100.00;100583.50;5071122;28;20601;-85
2021/03/20 10:26:31;;;;;;;;;;;;;;;10.50;100.00;100574.34;5084637;28;20276;-87
2021/03/20 10:29:02;;;;;;;;;;;;;;;10.55;100.00;100571.19;5090287;28;20012;-86
2021/03/20 10:31:30;;;;;;;;;;;;;;;10.58;100.00;100567.63;5089954;28;19930;-89
2021/03/20 10:34:20;;;;;;;;;;;;;;;10.30;100.00;100568.19;5073489;28;19928;-85
2021/03/20 10:37:09;;;;;;;;;;;;;;;10.28;100.00;100555.81;5066141;28;19981;-83
2021/03/20 10:39:37;;;;;;;;;;;;;;;10.57;100.00;100571.63;5100609;28;20474;-82
2021/03/20 10:42:07;;;;;;;;;;;;;;;10.63;100.00;100578.47;5083646;28;19924;-83
2021/03/20 10:44:38;;;;;;;;;;;;;;;10.51;100.00;100570.38;5073268;28;19927;-82
2021/03/20 10:47:07;;;;;;;;;;;;;;;10.21;100.00;100566.91;5090530;28;20350;-82
2021/03/20 10:49:44;;;;;;;;;;;;;;;10.25;100.00;100560.16;5090366;28;19931;-82
2021/03/20 10:52:15;;;;;;;;;;;;;;;10.21;100.00;100552.94;5091768;28;19946;-83
2021/03/20 10:54:46;;;;;;;;;;;;;;;10.32;100.00;100560.25;5090897;28;19990;-83
2021/03/20 10:57:16;;;;;;;;;;;;;;;10.35;100.00;100561.44;5091076;28;19935;-82
2021/03/20 10:59:45;;;;;;;;;;;;;;;10.13;100.00;100554.84;5091539;28;19924;-82
2021/03/20 11:02:30;;;;;;;;;;;;;;;9.97;100.00;100553.47;5099458;28;19924;-83
2021/03/20 11:05:12;;;;;;;;;;;;;;;9.64;100.00;100564.69;5091427;28;19931;-82
2021/03/20 11:07:49;;;;;;;;;;;;;;;9.60;100.00;100564.66;5091147;28;19924;-83
2021/03/20 11:10:22;;;;;;;;;;;;;;;9.57;100.00;100568.22;5088981;28;19932;-83
2021/03/20 11:12:50;;;;;;;;;;;;;;;9.49;100.00;100571.28;5091662;28;19928;-82
2021/03/20 11:15:22;;;;;;;;;;;;;;;9.34;100.00;100566.72;5073142;28;19973;-82
2021/03/20 11:17:51;;;;;;;;;;;;;;;9.45;100.00;100567.66;5090979;28;19931;-83
2021/03/20 11:20:20;;;;;;;;;;;;;;;9.51;100.00;100566.13;5070781;28;19970;-82
2021/03/20 11:22:47;;;;;;;;;;;;;;;9.51;100.00;100571.72;5089856;28;20022;-82
2021/03/20 11:25:20;;;;;;;;;;;;;;;9.67;100.00;100573.13;5089574;28;20361;-83
2021/03/20 11:28:07;;;;;;;;;;;;;;;9.75;100.00;100560.84;5077888;28;20001;-83
2021/03/20 11:30:39;;;;;;;;;;;;;;;9.80;100.00;100560.47;5090682;28;19959;-82
2021/03/20 11:33:06;;;;;;;;;;;;;;;9.78;100.00;100556.47;5082123;28;19932;-82
2021/03/20 11:35:34;;;;;;;;;;;;;;;9.75;100.00;100555.25;5085117;28;20026;-81
2021/03/20 11:38:02;;;;;;;;;;;;;;;9.85;100.00;100553.75;5106460;28;19963;-83
2021/03/20 11:40:29;;;;;;;;;;;;;;;10.06;100.00;100553.97;5090609;28;19926;-83
2021/03/20 11:42:57;;;;;;;;;;;;;;;10.21;100.00;100555.72;5071943;28;19924;-82
2021/03/20 11:45:29;;;;;;;;;;;;;;;10.31;100.00;100533.50;5084951;28;20019;-82
2021/03/20 11:47:58;;;;;;;;;;;;;;;10.47;100.00;100530.41;5089919;28;19978;-82
2021/03/20 11:50:27;;;;;;;;;;;;;;;10.39;100.00;100528.78;5088706;28;19946;-82
2021/03/20 11:52:57;;;;;;;;;;;;;;;10.38;100.00;100522.38;5090042;28;19975;-81
2021/03/20 11:55:29;;;;;;;;;;;;;;;10.52;100.00;100519.69;5089113;28;19928;-81
2021/03/20 11:58:00;;;;;;;;;;;;;;;10.54;100.00;100508.13;5088617;28;20619;-82
2021/03/20 12:00:27;;;;;;;;;;;;;;;10.27;100.00;100498.34;5089667;28;19985;-81
2021/03/20 12:02:53;;;;;;;;;;;;;;;10.24;100.00;100499.91;5089838;28;19924;-81
2021/03/20 12:05:31;;;;;;;;;;;;;;;10.32;100.00;100492.38;5086473;28;20038;-82
2021/03/20 12:08:15;;;;;;;;;;;;;;;10.19;100.00;100491.09;5088440;28;19924;-81
2021/03/20 12:11:08;;;;;;;;;;;;;;;10.25;100.00;100495.13;5077374;28;19964;-81
2021/03/20 12:13:39;;;;;;;;;;;;;;;10.23;100.00;100491.91;5088138;28;19924;-82
2021/03/20 12:16:06;;;;;;;;;;;;;;;10.16;100.00;100483.47;5089101;28;19931;-82
2021/03/20 12:18:33;;;;;;;;;;;;;;;10.16;100.00;100492.63;5090125;28;19943;-81
2021/03/20 12:21:03;;;;;;;;;;;;;;;10.21;100.00;100483.09;5089500;28;19947;-81
2021/03/20 12:23:31;;;;;;;;;;;;;;;10.27;100.00;100478.78;5083191;28;20402;-81
2021/03/20 12:25:59;;;;;;;;;;;;;;;10.25;100.00;100473.56;5084782;28;20524;-81
2021/03/20 12:28:43;;;;;;;;;;;;;;;10.08;100.00;100473.44;5091947;28;20011;-81
2021/03/20 12:31:13;;;;;;;;;;;;;;;10.11;100.00;100472.66;5085896;28;20444;-80
2021/03/20 12:33:59;;;;;;;;;;;;;;;10.24;100.00;100471.16;5089814;28;19949;-81
2021/03/20 12:36:25;;;;;;;;;;;;;;;10.39;100.00;100464.50;5087420;28;19931;-81
2021/03/20 12:38:54;;;;;;;;;;;;;;;10.53;100.00;100462.59;5091603;28;19935;-80
2021/03/20 12:41:45;;;;;;;;;;;;;;;10.22;100.00;100451.97;5092185;28;19963;-79
2021/03/20 12:44:28;;;;;;;;;;;;;;;10.17;100.00;100459.94;5093790;28;19970;-84
2021/03/20 12:46:56;;;;;;;;;;;;;;;10.05;100.00;100447.06;5084407;28;19990;-83
2021/03/20 12:49:25;;;;;;;;;;;;;;;9.85;100.00;100436.50;5092210;28;19928;-82
2021/03/20 12:52:16;;;;;;;;;;;;;;;9.76;100.00;100433.22;5109834;28;19924;-82
2021/03/20 12:54:46;;;;;;;;;;;;;;;9.75;100.00;100434.44;5087084;28;19928;-83
2021/03/20 12:57:15;;;;;;;;;;;;;;;9.79;100.00;100432.44;5072400;28;20260;-82
2021/03/20 12:59:42;;;;;;;;;;;;;;;9.75;100.00;100426.06;5088022;28;19924;-83
2021/03/20 13:02:11;;;;;;;;;;;;;;;9.73;100.00;100422.84;5083769;28;20688;-83